sensor_id;sensor_type;location;lat;lon;timestamp;P1;durP1;ratioP1;P2;durP2;ratioP2
10126;SDS011;13080;42.608;23.362;2024-02-23T00:01:47;15.55;;;9.75;;
10126;SDS011;13080;42.608;23.362;2024-02-23T00:04:14;16.13;;;13.02;;
10126;SDS011;13080;42.608;23.362;2024-02-23T00:06:41;20.10;;;13.15;;
10126;SDS011;13080;42.608;23.362;2024-02-23T00:09:09;15.05;;;8.73;;
10126;SDS011;13080;42.608;23.362;2024-02-23T00:11:38;11.05;;;6.60;;
10126;SDS011;13080;42.608;23.362;2024-02-23T00:14:09;11.07;;;6.40;;
10126;SDS011;13080;42.608;23.362;2024-02-23T00:16:39;12.63;;;6.25;;
10126;SDS011;13080;42.608;23.362;2024-02-23T00:19:07;13.30;;;7.68;;
10126;SDS011;13080;42.608;23.362;2024-02-23T00:21:35;12.30;;;6.75;;
10126;SDS011;13080;42.608;23.362;2024-02-23T00:24:02;20.35;;;11.63;;
10126;SDS011;13080;42.608;23.362;2024-02-23T00:26:31;13.27;;;8.32;;
10126;SDS011;13080;42.608;23.362;2024-02-23T00:28:58;11.57;;;7.38;;
10126;SDS011;13080;42.608;23.362;2024-02-23T00:31:25;11.52;;;6.90;;
10126;SDS011;13080;42.608;23.362;2024-02-23T00:33:52;18.00;;;7.43;;
10126;SDS011;13080;42.608;23.362;2024-02-23T00:36:19;14.15;;;7.35;;
10126;SDS011;13080;42.608;23.362;2024-02-23T00:38:46;20.77;;;11.15;;
10126;SDS011;13080;42.608;23.362;2024-02-23T00:41:13;14.55;;;7.35;;
10126;SDS011;13080;42.608;23.362;2024-02-23T00:43:41;12.85;;;6.95;;
10126;SDS011;13080;42.608;23.362;2024-02-23T00:46:08;10.90;;;6.60;;
10126;SDS011;13080;42.608;23.362;2024-02-23T00:48:35;11.10;;;7.45;;
10126;SDS011;13080;42.608;23.362;2024-02-23T00:51:02;14.65;;;7.90;;
10126;SDS011;13080;42.608;23.362;2024-02-23T00:53:30;12.93;;;7.60;;
10126;SDS011;13080;42.608;23.362;2024-02-23T00:55:57;14.27;;;7.75;;
10126;SDS011;13080;42.608;23.362;2024-02-23T00:58:25;11.80;;;7.63;;
10126;SDS011;13080;42.608;23.362;2024-02-23T01:00:53;13.48;;;7.03;;
10126;SDS011;13080;42.608;23.362;2024-02-23T01:03:20;13.77;;;7.00;;
10126;SDS011;13080;42.608;23.362;2024-02-23T01:05:47;13.18;;;7.35;;
10126;SDS011;13080;42.608;23.362;2024-02-23T01:08:14;11.00;;;7.30;;
10126;SDS011;13080;42.608;23.362;2024-02-23T01:10:41;11.85;;;7.82;;
10126;SDS011;13080;42.608;23.362;2024-02-23T01:13:08;10.30;;;6.20;;
10126;SDS011;13080;42.608;23.362;2024-02-23T01:15:35;11.05;;;6.88;;
10126;SDS011;13080;42.608;23.362;2024-02-23T01:18:03;8.63;;;5.57;;
10126;SDS011;13080;42.608;23.362;2024-02-23T01:20:33;12.30;;;6.32;;
10126;SDS011;13080;42.608;23.362;2024-02-23T01:23:00;13.85;;;6.88;;
10126;SDS011;13080;42.608;23.362;2024-02-23T01:25:26;10.48;;;6.70;;
10126;SDS011;13080;42.608;23.362;2024-02-23T01:27:53;8.90;;;6.07;;
10126;SDS011;13080;42.608;23.362;2024-02-23T01:30:20;13.75;;;6.88;;
10126;SDS011;13080;42.608;23.362;2024-02-23T01:32:47;15.05;;;7.97;;
10126;SDS011;13080;42.608;23.362;2024-02-23T01:35:17;10.43;;;6.15;;
10126;SDS011;13080;42.608;23.362;2024-02-23T01:37:44;11.57;;;6.72;;
10126;SDS011;13080;42.608;23.362;2024-02-23T01:40:11;15.52;;;7.30;;
10126;SDS011;13080;42.608;23.362;2024-02-23T01:42:37;13.20;;;7.80;;
10126;SDS011;13080;42.608;23.362;2024-02-23T01:45:05;14.98;;;7.80;;
10126;SDS011;13080;42.608;23.362;2024-02-23T01:47:33;12.98;;;7.65;;
10126;SDS011;13080;42.608;23.362;2024-02-23T01:49:59;12.73;;;7.00;;
10126;SDS011;13080;42.608;23.362;2024-02-23T01:52:28;11.07;;;6.68;;
10126;SDS011;13080;42.608;23.362;2024-02-23T01:54:55;18.60;;;9.57;;
10126;SDS011;13080;42.608;23.362;2024-02-23T01:57:23;11.50;;;8.38;;
10126;SDS011;13080;42.608;23.362;2024-02-23T01:59:50;14.07;;;8.85;;
10126;SDS011;13080;42.608;23.362;2024-02-23T02:02:18;15.10;;;7.68;;
10126;SDS011;13080;42.608;23.362;2024-02-23T02:04:45;14.98;;;10.38;;
10126;SDS011;13080;42.608;23.362;2024-02-23T02:07:12;14.60;;;8.65;;
10126;SDS011;13080;42.608;23.362;2024-02-23T02:09:41;10.93;;;7.00;;
10126;SDS011;13080;42.608;23.362;2024-02-23T02:12:08;13.23;;;8.35;;
10126;SDS011;13080;42.608;23.362;2024-02-23T02:14:35;18.23;;;7.63;;
10126;SDS011;13080;42.608;23.362;2024-02-23T02:17:02;11.93;;;6.75;;
10126;SDS011;13080;42.608;23.362;2024-02-23T02:19:29;13.77;;;6.88;;
10126;SDS011;13080;42.608;23.362;2024-02-23T02:21:56;11.60;;;6.68;;
10126;SDS011;13080;42.608;23.362;2024-02-23T02:24:23;11.60;;;7.10;;
10126;SDS011;13080;42.608;23.362;2024-02-23T02:26:51;11.10;;;6.32;;
10126;SDS011;13080;42.608;23.362;2024-02-23T02:29:18;11.00;;;7.07;;
10126;SDS011;13080;42.608;23.362;2024-02-23T02:31:45;11.48;;;6.50;;
10126;SDS011;13080;42.608;23.362;2024-02-23T02:34:12;12.02;;;6.43;;
10126;SDS011;13080;42.608;23.362;2024-02-23T02:36:39;12.43;;;7.18;;
10126;SDS011;13080;42.608;23.362;2024-02-23T02:39:06;12.85;;;7.13;;
10126;SDS011;13080;42.608;23.362;2024-02-23T02:41:33;11.95;;;6.22;;
10126;SDS011;13080;42.608;23.362;2024-02-23T02:44:02;13.32;;;6.93;;
10126;SDS011;13080;42.608;23.362;2024-02-23T02:46:29;16.10;;;7.63;;
10126;SDS011;13080;42.608;23.362;2024-02-23T02:48:56;11.93;;;6.63;;
10126;SDS011;13080;42.608;23.362;2024-02-23T02:51:22;13.77;;;7.20;;
10126;SDS011;13080;42.608;23.362;2024-02-23T02:53:49;13.32;;;7.03;;
10126;SDS011;13080;42.608;23.362;2024-02-23T02:56:16;12.45;;;6.63;;
10126;SDS011;13080;42.608;23.362;2024-02-23T02:58:43;11.60;;;7.35;;
10126;SDS011;13080;42.608;23.362;2024-02-23T03:01:12;13.85;;;8.45;;
10126;SDS011;13080;42.608;23.362;2024-02-23T03:03:38;12.50;;;7.22;;
10126;SDS011;13080;42.608;23.362;2024-02-23T03:06:05;10.85;;;6.57;;
10126;SDS011;13080;42.608;23.362;2024-02-23T03:08:33;14.77;;;7.53;;
10126;SDS011;13080;42.608;23.362;2024-02-23T03:11:00;11.55;;;6.45;;
10126;SDS011;13080;42.608;23.362;2024-02-23T03:13:27;11.13;;;6.80;;
10126;SDS011;13080;42.608;23.362;2024-02-23T03:15:54;10.52;;;6.68;;
10126;SDS011;13080;42.608;23.362;2024-02-23T03:18:22;12.45;;;7.05;;
10126;SDS011;13080;42.608;23.362;2024-02-23T03:20:49;10.85;;;6.53;;
10126;SDS011;13080;42.608;23.362;2024-02-23T03:23:16;13.38;;;7.38;;
10126;SDS011;13080;42.608;23.362;2024-02-23T03:25:43;12.65;;;6.78;;
10126;SDS011;13080;42.608;23.362;2024-02-23T03:28:10;12.88;;;6.78;;
10126;SDS011;13080;42.608;23.362;2024-02-23T03:30:37;10.85;;;6.45;;
10126;SDS011;13080;42.608;23.362;2024-02-23T03:33:04;13.25;;;6.63;;
10126;SDS011;13080;42.608;23.362;2024-02-23T03:35:32;11.05;;;7.10;;
10126;SDS011;13080;42.608;23.362;2024-02-23T03:37:59;12.82;;;7.03;;
10126;SDS011;13080;42.608;23.362;2024-02-23T03:40:27;13.68;;;7.10;;
10126;SDS011;13080;42.608;23.362;2024-02-23T03:42:54;15.23;;;7.45;;
10126;SDS011;13080;42.608;23.362;2024-02-23T03:45:21;13.00;;;7.45;;
10126;SDS011;13080;42.608;23.362;2024-02-23T03:47:48;9.25;;;5.78;;
10126;SDS011;13080;42.608;23.362;2024-02-23T03:50:15;13.95;;;7.18;;
10126;SDS011;13080;42.608;23.362;2024-02-23T03:52:43;14.13;;;8.00;;
10126;SDS011;13080;42.608;23.362;2024-02-23T03:55:10;11.10;;;6.70;;
10126;SDS011;13080;42.608;23.362;2024-02-23T03:57:37;11.95;;;7.25;;
10126;SDS011;13080;42.608;23.362;2024-02-23T04:00:05;11.52;;;6.68;;
10126;SDS011;13080;42.608;23.362;2024-02-23T04:02:33;13.20;;;7.00;;
10126;SDS011;13080;42.608;23.362;2024-02-23T04:05:00;13.70;;;7.20;;
10126;SDS011;13080;42.608;23.362;2024-02-23T04:07:27;12.50;;;7.22;;
10126;SDS011;13080;42.608;23.362;2024-02-23T04:09:56;12.05;;;7.22;;
10126;SDS011;13080;42.608;23.362;2024-02-23T04:12:23;9.80;;;6.35;;
10126;SDS011;13080;42.608;23.362;2024-02-23T04:14:50;13.15;;;7.00;;
10126;SDS011;13080;42.608;23.362;2024-02-23T04:17:17;26.92;;;15.65;;
10126;SDS011;13080;42.608;23.362;2024-02-23T04:19:44;24.38;;;16.17;;
10126;SDS011;13080;42.608;23.362;2024-02-23T04:22:11;17.75;;;12.13;;
10126;SDS011;13080;42.608;23.362;2024-02-23T04:24:39;15.20;;;8.85;;
10126;SDS011;13080;42.608;23.362;2024-02-23T04:27:08;11.75;;;8.13;;
10126;SDS011;13080;42.608;23.362;2024-02-23T04:29:35;14.38;;;7.78;;
10126;SDS011;13080;42.608;23.362;2024-02-23T04:32:02;11.52;;;7.03;;
10126;SDS011;13080;42.608;23.362;2024-02-23T04:34:30;12.32;;;6.57;;
10126;SDS011;13080;42.608;23.362;2024-02-23T04:36:57;12.27;;;7.30;;
10126;SDS011;13080;42.608;23.362;2024-02-23T04:39:24;12.35;;;7.28;;
10126;SDS011;13080;42.608;23.362;2024-02-23T04:41:51;13.02;;;7.68;;
10126;SDS011;13080;42.608;23.362;2024-02-23T04:44:20;11.43;;;7.93;;
10126;SDS011;13080;42.608;23.362;2024-02-23T04:46:47;15.30;;;6.95;;
10126;SDS011;13080;42.608;23.362;2024-02-23T04:49:14;12.38;;;6.13;;
10126;SDS011;13080;42.608;23.362;2024-02-23T04:51:41;10.93;;;6.47;;
10126;SDS011;13080;42.608;23.362;2024-02-23T04:54:08;14.25;;;7.47;;
10126;SDS011;13080;42.608;23.362;2024-02-23T04:56:35;13.13;;;7.55;;
10126;SDS011;13080;42.608;23.362;2024-02-23T04:59:01;11.20;;;7.30;;
10126;SDS011;13080;42.608;23.362;2024-02-23T05:01:34;10.88;;;6.97;;
10126;SDS011;13080;42.608;23.362;2024-02-23T05:04:02;10.88;;;5.97;;
10126;SDS011;13080;42.608;23.362;2024-02-23T05:06:29;9.93;;;5.85;;
10126;SDS011;13080;42.608;23.362;2024-02-23T05:08:56;11.18;;;6.57;;
10126;SDS011;13080;42.608;23.362;2024-02-23T05:11:39;10.23;;;6.30;;
10126;SDS011;13080;42.608;23.362;2024-02-23T05:14:12;13.98;;;7.10;;
10126;SDS011;13080;42.608;23.362;2024-02-23T05:16:40;10.45;;;5.90;;
10126;SDS011;13080;42.608;23.362;2024-02-23T05:19:07;11.50;;;6.55;;
10126;SDS011;13080;42.608;23.362;2024-02-23T05:21:34;12.10;;;6.93;;
10126;SDS011;13080;42.608;23.362;2024-02-23T05:24:01;11.95;;;6.57;;
10126;SDS011;13080;42.608;23.362;2024-02-23T05:26:30;13.80;;;7.30;;
10126;SDS011;13080;42.608;23.362;2024-02-23T05:28:57;11.60;;;6.60;;
10126;SDS011;13080;42.608;23.362;2024-02-23T05:31:42;10.90;;;6.32;;
10126;SDS011;13080;42.608;23.362;2024-02-23T05:34:12;12.43;;;5.97;;
10126;SDS011;13080;42.608;23.362;2024-02-23T05:36:39;10.50;;;5.97;;
10126;SDS011;13080;42.608;23.362;2024-02-23T05:39:06;13.85;;;6.90;;
10126;SDS011;13080;42.608;23.362;2024-02-23T05:41:34;9.77;;;6.03;;
10126;SDS011;13080;42.608;23.362;2024-02-23T05:44:02;11.13;;;6.05;;
10126;SDS011;13080;42.608;23.362;2024-02-23T05:46:31;10.00;;;6.63;;
10126;SDS011;13080;42.608;23.362;2024-02-23T05:49:00;11.07;;;6.90;;
10126;SDS011;13080;42.608;23.362;2024-02-23T05:51:27;10.55;;;5.88;;
10126;SDS011;13080;42.608;23.362;2024-02-23T05:53:55;9.57;;;6.28;;
10126;SDS011;13080;42.608;23.362;2024-02-23T05:56:22;10.93;;;6.63;;
10126;SDS011;13080;42.608;23.362;2024-02-23T05:58:49;11.10;;;6.60;;
10126;SDS011;13080;42.608;23.362;2024-02-23T06:01:16;12.85;;;6.32;;
10126;SDS011;13080;42.608;23.362;2024-02-23T06:03:43;10.88;;;7.05;;
10126;SDS011;13080;42.608;23.362;2024-02-23T06:06:11;10.13;;;6.68;;
10126;SDS011;13080;42.608;23.362;2024-02-23T06:08:39;14.63;;;7.57;;
10126;SDS011;13080;42.608;23.362;2024-02-23T06:11:06;12.30;;;7.32;;
10126;SDS011;13080;42.608;23.362;2024-02-23T06:13:35;11.15;;;6.53;;
10126;SDS011;13080;42.608;23.362;2024-02-23T06:16:02;12.23;;;7.65;;
10126;SDS011;13080;42.608;23.362;2024-02-23T06:18:29;13.50;;;8.02;;
10126;SDS011;13080;42.608;23.362;2024-02-23T06:20:56;12.82;;;7.20;;
10126;SDS011;13080;42.608;23.362;2024-02-23T06:23:24;14.00;;;7.13;;
10126;SDS011;13080;42.608;23.362;2024-02-23T06:25:51;12.68;;;7.30;;
10126;SDS011;13080;42.608;23.362;2024-02-23T06:28:21;16.10;;;7.53;;
10126;SDS011;13080;42.608;23.362;2024-02-23T06:30:48;15.13;;;8.55;;
10126;SDS011;13080;42.608;23.362;2024-02-23T06:33:15;17.45;;;8.20;;
10126;SDS011;13080;42.608;23.362;2024-02-23T06:35:42;12.30;;;8.15;;
10126;SDS011;13080;42.608;23.362;2024-02-23T06:38:09;13.70;;;7.90;;
10126;SDS011;13080;42.608;23.362;2024-02-23T06:40:37;19.00;;;7.47;;
10126;SDS011;13080;42.608;23.362;2024-02-23T06:43:04;12.50;;;7.05;;
10126;SDS011;13080;42.608;23.362;2024-02-23T06:45:31;13.52;;;7.05;;
10126;SDS011;13080;42.608;23.362;2024-02-23T06:47:58;13.10;;;7.47;;
10126;SDS011;13080;42.608;23.362;2024-02-23T06:50:25;13.60;;;6.85;;
10126;SDS011;13080;42.608;23.362;2024-02-23T06:52:52;11.75;;;6.82;;
10126;SDS011;13080;42.608;23.362;2024-02-23T06:55:19;10.98;;;5.50;;
10126;SDS011;13080;42.608;23.362;2024-02-23T06:57:48;15.77;;;6.43;;
10126;SDS011;13080;42.608;23.362;2024-02-23T07:00:15;12.90;;;7.32;;
10126;SDS011;13080;42.608;23.362;2024-02-23T07:02:42;12.68;;;7.63;;
10126;SDS011;13080;42.608;23.362;2024-02-23T07:05:09;13.25;;;7.97;;
10126;SDS011;13080;42.608;23.362;2024-02-23T07:07:36;11.38;;;7.30;;
10126;SDS011;13080;42.608;23.362;2024-02-23T07:10:05;12.40;;;7.00;;
10126;SDS011;13080;42.608;23.362;2024-02-23T07:12:33;13.38;;;7.85;;
10126;SDS011;13080;42.608;23.362;2024-02-23T07:15:01;11.68;;;7.82;;
10126;SDS011;13080;42.608;23.362;2024-02-23T07:17:29;14.07;;;7.32;;
10126;SDS011;13080;42.608;23.362;2024-02-23T07:19:56;13.70;;;7.30;;
10126;SDS011;13080;42.608;23.362;2024-02-23T07:22:30;11.82;;;7.55;;
10126;SDS011;13080;42.608;23.362;2024-02-23T07:24:57;13.48;;;7.75;;
10126;SDS011;13080;42.608;23.362;2024-02-23T07:27:26;12.07;;;7.22;;
10126;SDS011;13080;42.608;23.362;2024-02-23T07:29:53;12.07;;;7.60;;
10126;SDS011;13080;42.608;23.362;2024-02-23T07:32:22;11.93;;;6.65;;
10126;SDS011;13080;42.608;23.362;2024-02-23T07:34:49;17.58;;;7.30;;
10126;SDS011;13080;42.608;23.362;2024-02-23T07:37:16;15.07;;;7.65;;
10126;SDS011;13080;42.608;23.362;2024-02-23T07:39:43;12.95;;;7.15;;
10126;SDS011;13080;42.608;23.362;2024-02-23T07:42:10;15.88;;;8.32;;
10126;SDS011;13080;42.608;23.362;2024-02-23T07:44:39;11.48;;;8.00;;
10126;SDS011;13080;42.608;23.362;2024-02-23T07:47:06;13.27;;;7.97;;
10126;SDS011;13080;42.608;23.362;2024-02-23T07:49:34;13.20;;;8.82;;
10126;SDS011;13080;42.608;23.362;2024-02-23T07:52:02;15.13;;;7.88;;
10126;SDS011;13080;42.608;23.362;2024-02-23T07:54:29;18.42;;;8.23;;
10126;SDS011;13080;42.608;23.362;2024-02-23T07:56:56;19.02;;;8.68;;
10126;SDS011;13080;42.608;23.362;2024-02-23T07:59:23;18.65;;;10.13;;
10126;SDS011;13080;42.608;23.362;2024-02-23T08:01:50;17.88;;;10.10;;
10126;SDS011;13080;42.608;23.362;2024-02-23T08:04:17;22.42;;;11.27;;
10126;SDS011;13080;42.608;23.362;2024-02-23T08:06:45;18.50;;;10.68;;
10126;SDS011;13080;42.608;23.362;2024-02-23T08:09:13;13.48;;;8.65;;
10126;SDS011;13080;42.608;23.362;2024-02-23T08:11:40;19.05;;;10.05;;
10126;SDS011;13080;42.608;23.362;2024-02-23T08:14:07;16.17;;;10.00;;
10126;SDS011;13080;42.608;23.362;2024-02-23T08:16:34;14.55;;;8.93;;
10126;SDS011;13080;42.608;23.362;2024-02-23T08:19:01;17.13;;;10.50;;
10126;SDS011;13080;42.608;23.362;2024-02-23T08:21:28;20.83;;;10.52;;
10126;SDS011;13080;42.608;23.362;2024-02-23T08:23:56;21.08;;;10.43;;
10126;SDS011;13080;42.608;23.362;2024-02-23T08:26:23;19.35;;;10.25;;
10126;SDS011;13080;42.608;23.362;2024-02-23T08:28:50;17.00;;;9.25;;
10126;SDS011;13080;42.608;23.362;2024-02-23T08:31:17;17.40;;;9.38;;
10126;SDS011;13080;42.608;23.362;2024-02-23T08:33:44;20.92;;;10.80;;
10126;SDS011;13080;42.608;23.362;2024-02-23T08:36:12;18.25;;;9.60;;
10126;SDS011;13080;42.608;23.362;2024-02-23T08:38:39;17.73;;;10.00;;
10126;SDS011;13080;42.608;23.362;2024-02-23T08:41:07;14.48;;;8.45;;
10126;SDS011;13080;42.608;23.362;2024-02-23T08:43:34;13.77;;;7.18;;
10126;SDS011;13080;42.608;23.362;2024-02-23T08:46:01;12.02;;;6.95;;
10126;SDS011;13080;42.608;23.362;2024-02-23T08:48:28;14.13;;;7.40;;
10126;SDS011;13080;42.608;23.362;2024-02-23T08:50:55;15.40;;;7.22;;
10126;SDS011;13080;42.608;23.362;2024-02-23T08:53:22;13.93;;;5.60;;
10126;SDS011;13080;42.608;23.362;2024-02-23T08:55:49;11.38;;;6.15;;
10126;SDS011;13080;42.608;23.362;2024-02-23T08:58:20;11.45;;;5.97;;
10126;SDS011;13080;42.608;23.362;2024-02-23T09:00:47;11.88;;;6.05;;
10126;SDS011;13080;42.608;23.362;2024-02-23T09:03:14;11.35;;;6.32;;
10126;SDS011;13080;42.608;23.362;2024-02-23T09:05:41;9.48;;;5.82;;
10126;SDS011;13080;42.608;23.362;2024-02-23T09:08:08;10.02;;;5.97;;
10126;SDS011;13080;42.608;23.362;2024-02-23T09:10:35;12.75;;;6.47;;
10126;SDS011;13080;42.608;23.362;2024-02-23T09:13:02;13.15;;;5.93;;
10126;SDS011;13080;42.608;23.362;2024-02-23T09:15:30;9.82;;;6.22;;
10126;SDS011;13080;42.608;23.362;2024-02-23T09:17:57;10.73;;;5.40;;
10126;SDS011;13080;42.608;23.362;2024-02-23T09:20:24;10.80;;;5.88;;
10126;SDS011;13080;42.608;23.362;2024-02-23T09:22:51;10.25;;;5.72;;
10126;SDS011;13080;42.608;23.362;2024-02-23T09:25:18;8.88;;;5.93;;
10126;SDS011;13080;42.608;23.362;2024-02-23T09:27:46;12.57;;;6.25;;
10126;SDS011;13080;42.608;23.362;2024-02-23T09:30:13;7.82;;;5.32;;
10126;SDS011;13080;42.608;23.362;2024-02-23T09:32:42;7.55;;;4.60;;
10126;SDS011;13080;42.608;23.362;2024-02-23T09:35:09;9.10;;;5.35;;
10126;SDS011;13080;42.608;23.362;2024-02-23T09:37:36;7.53;;;4.78;;
10126;SDS011;13080;42.608;23.362;2024-02-23T09:40:03;9.10;;;4.45;;
10126;SDS011;13080;42.608;23.362;2024-02-23T09:42:31;8.40;;;4.20;;
10126;SDS011;13080;42.608;23.362;2024-02-23T09:44:59;6.03;;;4.05;;
10126;SDS011;13080;42.608;23.362;2024-02-23T09:47:27;8.23;;;4.18;;
10126;SDS011;13080;42.608;23.362;2024-02-23T09:49:56;8.73;;;4.68;;
10126;SDS011;13080;42.608;23.362;2024-02-23T09:52:23;8.55;;;4.88;;
10126;SDS011;13080;42.608;23.362;2024-02-23T09:54:50;6.78;;;3.63;;
10126;SDS011;13080;42.608;23.362;2024-02-23T09:57:18;6.53;;;3.08;;
10126;SDS011;13080;42.608;23.362;2024-02-23T09:59:45;5.13;;;2.75;;
10126;SDS011;13080;42.608;23.362;2024-02-23T10:02:15;6.53;;;3.50;;
10126;SDS011;13080;42.608;23.362;2024-02-23T10:04:43;3.78;;;2.80;;
10126;SDS011;13080;42.608;23.362;2024-02-23T10:07:12;4.45;;;2.67;;
10126;SDS011;13080;42.608;23.362;2024-02-23T10:09:40;3.78;;;2.65;;
10126;SDS011;13080;42.608;23.362;2024-02-23T10:12:07;4.65;;;2.80;;
10126;SDS011;13080;42.608;23.362;2024-02-23T10:14:34;4.78;;;2.58;;
10126;SDS011;13080;42.608;23.362;2024-02-23T10:17:01;4.38;;;2.00;;
10126;SDS011;13080;42.608;23.362;2024-02-23T10:19:29;3.47;;;2.40;;
10126;SDS011;13080;42.608;23.362;2024-02-23T10:21:56;2.88;;;2.25;;
10126;SDS011;13080;42.608;23.362;2024-02-23T10:24:24;4.18;;;1.90;;
10126;SDS011;13080;42.608;23.362;2024-02-23T10:26:51;1.92;;;1.60;;
10126;SDS011;13080;42.608;23.362;2024-02-23T10:29:18;4.40;;;2.75;;
10126;SDS011;13080;42.608;23.362;2024-02-23T10:31:48;4.78;;;2.70;;
10126;SDS011;13080;42.608;23.362;2024-02-23T10:34:18;2.65;;;2.10;;
10126;SDS011;13080;42.608;23.362;2024-02-23T10:36:48;4.65;;;2.40;;
10126;SDS011;13080;42.608;23.362;2024-02-23T10:39:16;4.28;;;2.00;;
10126;SDS011;13080;42.608;23.362;2024-02-23T10:41:46;2.47;;;1.85;;
10126;SDS011;13080;42.608;23.362;2024-02-23T10:44:18;4.07;;;1.98;;
10126;SDS011;13080;42.608;23.362;2024-02-23T10:46:45;3.25;;;2.00;;
10126;SDS011;13080;42.608;23.362;2024-02-23T10:49:13;3.83;;;2.15;;
10126;SDS011;13080;42.608;23.362;2024-02-23T10:51:42;3.22;;;2.05;;
10126;SDS011;13080;42.608;23.362;2024-02-23T10:54:12;6.32;;;2.13;;
10126;SDS011;13080;42.608;23.362;2024-02-23T10:56:40;3.47;;;2.25;;
10126;SDS011;13080;42.608;23.362;2024-02-23T10:59:09;2.78;;;2.00;;
10126;SDS011;13080;42.608;23.362;2024-02-23T11:01:37;5.75;;;2.05;;
10126;SDS011;13080;42.608;23.362;2024-02-23T11:04:06;4.22;;;1.75;;
10126;SDS011;13080;42.608;23.362;2024-02-23T11:06:34;3.55;;;2.28;;
10126;SDS011;13080;42.608;23.362;2024-02-23T11:09:04;3.88;;;1.95;;
10126;SDS011;13080;42.608;23.362;2024-02-23T11:11:33;2.35;;;1.42;;
10126;SDS011;13080;42.608;23.362;2024-02-23T11:14:02;3.38;;;1.98;;
10126;SDS011;13080;42.608;23.362;2024-02-23T11:16:31;2.13;;;1.70;;
10126;SDS011;13080;42.608;23.362;2024-02-23T11:19:03;3.55;;;1.83;;
10126;SDS011;13080;42.608;23.362;2024-02-23T11:21:34;2.53;;;1.75;;
10126;SDS011;13080;42.608;23.362;2024-02-23T11:24:02;2.72;;;1.85;;
10126;SDS011;13080;42.608;23.362;2024-02-23T11:26:30;3.22;;;1.80;;
10126;SDS011;13080;42.608;23.362;2024-02-23T11:28:58;2.53;;;1.80;;
10126;SDS011;13080;42.608;23.362;2024-02-23T11:31:28;2.05;;;1.42;;
10126;SDS011;13080;42.608;23.362;2024-02-23T11:33:57;3.88;;;1.85;;
10126;SDS011;13080;42.608;23.362;2024-02-23T11:36:27;2.05;;;1.80;;
10126;SDS011;13080;42.608;23.362;2024-02-23T11:38:56;2.15;;;1.52;;
10126;SDS011;13080;42.608;23.362;2024-02-23T11:41:24;2.50;;;1.80;;
10126;SDS011;13080;42.608;23.362;2024-02-23T11:43:52;2.58;;;2.03;;
10126;SDS011;13080;42.608;23.362;2024-02-23T11:46:20;2.30;;;2.10;;
10126;SDS011;13080;42.608;23.362;2024-02-23T11:48:49;2.40;;;1.92;;
10126;SDS011;13080;42.608;23.362;2024-02-23T11:51:18;2.40;;;1.85;;
10126;SDS011;13080;42.608;23.362;2024-02-23T11:53:46;2.15;;;1.60;;
10126;SDS011;13080;42.608;23.362;2024-02-23T11:56:13;2.92;;;1.80;;
10126;SDS011;13080;42.608;23.362;2024-02-23T11:58:41;2.45;;;1.88;;
10126;SDS011;13080;42.608;23.362;2024-02-23T12:01:08;2.70;;;2.03;;
10126;SDS011;13080;42.608;23.362;2024-02-23T12:03:35;2.90;;;1.70;;
10126;SDS011;13080;42.608;23.362;2024-02-23T12:06:06;1.83;;;1.42;;
10126;SDS011;13080;42.608;23.362;2024-02-23T12:08:34;6.45;;;3.50;;
10126;SDS011;13080;42.608;23.362;2024-02-23T12:11:04;4.03;;;2.45;;
10126;SDS011;13080;42.608;23.362;2024-02-23T12:13:33;3.83;;;1.67;;
10126;SDS011;13080;42.608;23.362;2024-02-23T12:16:00;3.22;;;2.03;;
10126;SDS011;13080;42.608;23.362;2024-02-23T12:18:28;2.50;;;1.95;;
10126;SDS011;13080;42.608;23.362;2024-02-23T12:20:58;1.80;;;1.60;;
10126;SDS011;13080;42.608;23.362;2024-02-23T12:23:28;2.80;;;1.80;;
10126;SDS011;13080;42.608;23.362;2024-02-23T12:26:04;2.65;;;1.50;;
10126;SDS011;13080;42.608;23.362;2024-02-23T12:28:31;2.58;;;2.10;;
10126;SDS011;13080;42.608;23.362;2024-02-23T12:30:59;3.55;;;1.80;;
10126;SDS011;13080;42.608;23.362;2024-02-23T12:33:27;4.15;;;1.90;;
10126;SDS011;13080;42.608;23.362;2024-02-23T12:35:56;3.15;;;1.80;;
10126;SDS011;13080;42.608;23.362;2024-02-23T12:38:24;2.20;;;1.50;;
10126;SDS011;13080;42.608;23.362;2024-02-23T12:40:52;2.88;;;1.55;;
10126;SDS011;13080;42.608;23.362;2024-02-23T12:43:19;2.20;;;1.83;;
10126;SDS011;13080;42.608;23.362;2024-02-23T12:45:49;1.98;;;1.63;;
10126;SDS011;13080;42.608;23.362;2024-02-23T12:48:16;3.08;;;1.80;;
10126;SDS011;13080;42.608;23.362;2024-02-23T12:50:46;2.17;;;1.67;;
10126;SDS011;13080;42.608;23.362;2024-02-23T12:53:29;4.85;;;1.52;;
10126;SDS011;13080;42.608;23.362;2024-02-23T12:58:26;2.10;;;1.70;;
10126;SDS011;13080;42.608;23.362;2024-02-23T13:00:53;3.03;;;1.65;;
10126;SDS011;13080;42.608;23.362;2024-02-23T13:03:22;3.25;;;1.95;;
10126;SDS011;13080;42.608;23.362;2024-02-23T13:05:52;3.50;;;2.25;;
10126;SDS011;13080;42.608;23.362;2024-02-23T13:08:19;2.78;;;2.10;;
10126;SDS011;13080;42.608;23.362;2024-02-23T13:10:46;3.10;;;1.60;;
10126;SDS011;13080;42.608;23.362;2024-02-23T13:13:14;2.33;;;1.70;;
10126;SDS011;13080;42.608;23.362;2024-02-23T13:15:42;3.83;;;1.90;;
10126;SDS011;13080;42.608;23.362;2024-02-23T13:18:09;4.50;;;1.80;;
10126;SDS011;13080;42.608;23.362;2024-02-23T13:20:37;2.65;;;1.67;;
10126;SDS011;13080;42.608;23.362;2024-02-23T13:23:06;3.17;;;1.90;;
10126;SDS011;13080;42.608;23.362;2024-02-23T13:25:33;2.72;;;2.17;;
10126;SDS011;13080;42.608;23.362;2024-02-23T13:28:01;2.95;;;1.88;;
10126;SDS011;13080;42.608;23.362;2024-02-23T13:30:29;2.40;;;1.92;;
10126;SDS011;13080;42.608;23.362;2024-02-23T13:32:58;2.90;;;2.05;;
10126;SDS011;13080;42.608;23.362;2024-02-23T13:35:25;2.20;;;1.80;;
10126;SDS011;13080;42.608;23.362;2024-02-23T13:37:52;3.17;;;2.10;;
10126;SDS011;13080;42.608;23.362;2024-02-23T13:40:19;1.88;;;1.70;;
10126;SDS011;13080;42.608;23.362;2024-02-23T13:42:47;2.33;;;1.52;;
10126;SDS011;13080;42.608;23.362;2024-02-23T13:45:15;1.95;;;1.52;;
10126;SDS011;13080;42.608;23.362;2024-02-23T13:47:44;3.08;;;2.00;;
10126;SDS011;13080;42.608;23.362;2024-02-23T13:50:23;2.72;;;1.90;;
10126;SDS011;13080;42.608;23.362;2024-02-23T13:52:50;2.08;;;1.80;;
10126;SDS011;13080;42.608;23.362;2024-02-23T13:55:17;2.33;;;1.70;;
10126;SDS011;13080;42.608;23.362;2024-02-23T13:57:45;2.47;;;1.70;;
10126;SDS011;13080;42.608;23.362;2024-02-23T14:00:13;3.75;;;2.00;;
10126;SDS011;13080;42.608;23.362;2024-02-23T14:02:40;2.63;;;1.77;;
10126;SDS011;13080;42.608;23.362;2024-02-23T14:05:09;3.47;;;2.20;;
10126;SDS011;13080;42.608;23.362;2024-02-23T14:07:36;3.20;;;1.60;;
10126;SDS011;13080;42.608;23.362;2024-02-23T14:10:03;3.58;;;2.03;;
10126;SDS011;13080;42.608;23.362;2024-02-23T14:12:31;2.75;;;1.85;;
10126;SDS011;13080;42.608;23.362;2024-02-23T14:14:58;2.10;;;1.60;;
10126;SDS011;13080;42.608;23.362;2024-02-23T14:17:25;2.83;;;1.90;;
10126;SDS011;13080;42.608;23.362;2024-02-23T14:19:52;2.20;;;1.65;;
10126;SDS011;13080;42.608;23.362;2024-02-23T14:22:20;3.30;;;2.50;;
10126;SDS011;13080;42.608;23.362;2024-02-23T14:24:50;2.35;;;1.90;;
10126;SDS011;13080;42.608;23.362;2024-02-23T14:27:17;2.78;;;1.95;;
10126;SDS011;13080;42.608;23.362;2024-02-23T14:29:44;2.83;;;1.65;;
10126;SDS011;13080;42.608;23.362;2024-02-23T14:32:11;3.95;;;2.25;;